sensor_id;sensor_type;location;lat;lon;timestamp;P1;durP1;ratioP1;P2;durP2;ratioP2
77733;SDS011;66902;41.720;44.796;2023-04-03T00:02:23;12.90;;;10.80;;
77733;SDS011;66902;41.720;44.796;2023-04-03T00:04:54;11.50;;;10.40;;
77733;SDS011;66902;41.720;44.796;2023-04-03T00:07:24;12.40;;;11.10;;
77733;SDS011;66902;41.720;44.796;2023-04-03T00:09:54;12.10;;;10.70;;
77733;SDS011;66902;41.720;44.796;2023-04-03T00:12:24;11.20;;;10.10;;
77733;SDS011;66902;41.720;44.796;2023-04-03T00:14:55;12.20;;;11.10;;
77733;SDS011;66902;41.720;44.796;2023-04-03T00:17:25;16.10;;;12.30;;
77733;SDS011;66902;41.720;44.796;2023-04-03T00:19:55;11.70;;;10.60;;
77733;SDS011;66902;41.720;44.796;2023-04-03T00:22:25;12.50;;;10.80;;
77733;SDS011;66902;41.720;44.796;2023-04-03T00:24:56;14.60;;;11.10;;
77733;SDS011;66902;41.720;44.796;2023-04-03T00:27:27;13.00;;;9.60;;
77733;SDS011;66902;41.720;44.796;2023-04-03T00:29:57;13.20;;;11.90;;
77733;SDS011;66902;41.720;44.796;2023-04-03T00:32:27;15.00;;;10.90;;
77733;SDS011;66902;41.720;44.796;2023-04-03T00:34:59;13.20;;;10.90;;
77733;SDS011;66902;41.720;44.796;2023-04-03T00:37:29;14.30;;;11.40;;
77733;SDS011;66902;41.720;44.796;2023-04-03T00:39:59;15.30;;;10.40;;
77733;SDS011;66902;41.720;44.796;2023-04-03T00:42:30;17.50;;;12.00;;
77733;SDS011;66902;41.720;44.796;2023-04-03T00:47:54;13.70;;;12.30;;
77733;SDS011;66902;41.720;44.796;2023-04-03T00:50:24;18.50;;;11.40;;
77733;SDS011;66902;41.720;44.796;2023-04-03T00:52:55;20.30;;;14.00;;
77733;SDS011;66902;41.720;44.796;2023-04-03T00:55:26;12.80;;;11.10;;
77733;SDS011;66902;41.720;44.796;2023-04-03T00:57:57;11.90;;;10.70;;
77733;SDS011;66902;41.720;44.796;2023-04-03T01:00:27;15.20;;;12.00;;
77733;SDS011;66902;41.720;44.796;2023-04-03T01:02:58;13.20;;;10.20;;
77733;SDS011;66902;41.720;44.796;2023-04-03T01:05:29;18.00;;;11.10;;
77733;SDS011;66902;41.720;44.796;2023-04-03T01:07:59;12.70;;;11.50;;
77733;SDS011;66902;41.720;44.796;2023-04-03T01:10:29;20.00;;;12.90;;
77733;SDS011;66902;41.720;44.796;2023-04-03T01:13:00;10.70;;;9.60;;
77733;SDS011;66902;41.720;44.796;2023-04-03T01:15:31;12.40;;;11.20;;
77733;SDS011;66902;41.720;44.796;2023-04-03T01:18:03;15.00;;;11.70;;
77733;SDS011;66902;41.720;44.796;2023-04-03T01:20:40;11.70;;;10.30;;
77733;SDS011;66902;41.720;44.796;2023-04-03T01:26:17;19.90;;;12.80;;
77733;SDS011;66902;41.720;44.796;2023-04-03T01:28:52;12.60;;;11.30;;
77733;SDS011;66902;41.720;44.796;2023-04-03T01:31:24;15.30;;;12.40;;
77733;SDS011;66902;41.720;44.796;2023-04-03T01:33:56;14.90;;;11.90;;
77733;SDS011;66902;41.720;44.796;2023-04-03T01:36:29;15.60;;;12.60;;
77733;SDS011;66902;41.720;44.796;2023-04-03T01:39:00;17.50;;;14.40;;
77733;SDS011;66902;41.720;44.796;2023-04-03T01:41:30;15.90;;;13.60;;
77733;SDS011;66902;41.720;44.796;2023-04-03T01:44:00;15.00;;;12.50;;
77733;SDS011;66902;41.720;44.796;2023-04-03T01:46:32;16.60;;;13.30;;
77733;SDS011;66902;41.720;44.796;2023-04-03T01:49:03;15.70;;;12.60;;
77733;SDS011;66902;41.720;44.796;2023-04-03T01:51:33;12.40;;;11.10;;
77733;SDS011;66902;41.720;44.796;2023-04-03T01:54:04;15.70;;;12.80;;
77733;SDS011;66902;41.720;44.796;2023-04-03T01:56:34;18.90;;;13.30;;
77733;SDS011;66902;41.720;44.796;2023-04-03T01:59:06;17.20;;;13.90;;
77733;SDS011;66902;41.720;44.796;2023-04-03T02:01:38;17.90;;;12.10;;
77733;SDS011;66902;41.720;44.796;2023-04-03T02:04:08;15.00;;;12.80;;
77733;SDS011;66902;41.720;44.796;2023-04-03T02:06:40;15.00;;;12.60;;
77733;SDS011;66902;41.720;44.796;2023-04-03T02:09:10;20.60;;;15.60;;
77733;SDS011;66902;41.720;44.796;2023-04-03T02:11:41;16.60;;;14.10;;
77733;SDS011;66902;41.720;44.796;2023-04-03T02:14:12;15.10;;;13.60;;
77733;SDS011;66902;41.720;44.796;2023-04-03T02:16:43;15.70;;;14.10;;
77733;SDS011;66902;41.720;44.796;2023-04-03T02:19:13;17.30;;;13.00;;
77733;SDS011;66902;41.720;44.796;2023-04-03T02:21:44;15.60;;;13.40;;
77733;SDS011;66902;41.720;44.796;2023-04-03T02:24:15;16.20;;;13.70;;
77733;SDS011;66902;41.720;44.796;2023-04-03T02:26:45;15.50;;;12.80;;
77733;SDS011;66902;41.720;44.796;2023-04-03T02:29:16;14.00;;;12.60;;
77733;SDS011;66902;41.720;44.796;2023-04-03T02:31:49;15.10;;;12.30;;
77733;SDS011;66902;41.720;44.796;2023-04-03T02:34:19;15.80;;;13.00;;
77733;SDS011;66902;41.720;44.796;2023-04-03T02:36:50;17.30;;;13.80;;
77733;SDS011;66902;41.720;44.796;2023-04-03T02:39:20;16.60;;;13.30;;
77733;SDS011;66902;41.720;44.796;2023-04-03T02:41:50;19.20;;;13.40;;
77733;SDS011;66902;41.720;44.796;2023-04-03T02:44:21;16.20;;;12.90;;
77733;SDS011;66902;41.720;44.796;2023-04-03T02:46:52;21.60;;;14.70;;
77733;SDS011;66902;41.720;44.796;2023-04-03T02:49:22;20.80;;;12.60;;
77733;SDS011;66902;41.720;44.796;2023-04-03T02:51:52;19.70;;;13.40;;
77733;SDS011;66902;41.720;44.796;2023-04-03T02:54:23;15.80;;;12.60;;
77733;SDS011;66902;41.720;44.796;2023-04-03T02:56:56;26.20;;;15.10;;
77733;SDS011;66902;41.720;44.796;2023-04-03T02:59:27;20.10;;;15.30;;
77733;SDS011;66902;41.720;44.796;2023-04-03T03:01:58;24.00;;;16.50;;
77733;SDS011;66902;41.720;44.796;2023-04-03T03:04:31;16.90;;;15.10;;
77733;SDS011;66902;41.720;44.796;2023-04-03T03:07:02;18.20;;;15.10;;
77733;SDS011;66902;41.720;44.796;2023-04-03T03:09:33;26.30;;;15.80;;
77733;SDS011;66902;41.720;44.796;2023-04-03T03:12:03;22.30;;;15.00;;
77733;SDS011;66902;41.720;44.796;2023-04-03T03:14:35;18.70;;;16.60;;
77733;SDS011;66902;41.720;44.796;2023-04-03T03:17:06;21.60;;;15.30;;
77733;SDS011;66902;41.720;44.796;2023-04-03T03:19:37;14.60;;;13.00;;
77733;SDS011;66902;41.720;44.796;2023-04-03T03:22:07;14.40;;;12.90;;
77733;SDS011;66902;41.720;44.796;2023-04-03T03:24:38;17.90;;;14.20;;
77733;SDS011;66902;41.720;44.796;2023-04-03T03:27:09;23.20;;;14.40;;
77733;SDS011;66902;41.720;44.796;2023-04-03T03:29:40;18.50;;;14.60;;
77733;SDS011;66902;41.720;44.796;2023-04-03T03:32:10;20.50;;;15.00;;
77733;SDS011;66902;41.720;44.796;2023-04-03T03:34:41;18.60;;;13.60;;
77733;SDS011;66902;41.720;44.796;2023-04-03T03:37:11;22.80;;;13.60;;
77733;SDS011;66902;41.720;44.796;2023-04-03T03:39:41;19.40;;;14.90;;
77733;SDS011;66902;41.720;44.796;2023-04-03T03:42:13;26.30;;;18.10;;
77733;SDS011;66902;41.720;44.796;2023-04-03T03:44:44;22.10;;;16.60;;
77733;SDS011;66902;41.720;44.796;2023-04-03T03:47:14;22.50;;;14.80;;
77733;SDS011;66902;41.720;44.796;2023-04-03T03:49:44;20.90;;;15.40;;
77733;SDS011;66902;41.720;44.796;2023-04-03T03:52:15;24.90;;;15.90;;
77733;SDS011;66902;41.720;44.796;2023-04-03T03:54:45;22.50;;;15.50;;
77733;SDS011;66902;41.720;44.796;2023-04-03T03:57:16;30.30;;;17.20;;
77733;SDS011;66902;41.720;44.796;2023-04-03T03:59:46;18.50;;;15.30;;
77733;SDS011;66902;41.720;44.796;2023-04-03T04:02:18;16.40;;;14.70;;
77733;SDS011;66902;41.720;44.796;2023-04-03T04:04:49;20.10;;;16.80;;
77733;SDS011;66902;41.720;44.796;2023-04-03T04:07:19;15.80;;;14.10;;
77733;SDS011;66902;41.720;44.796;2023-04-03T04:09:50;16.30;;;13.60;;
77733;SDS011;66902;41.720;44.796;2023-04-03T04:12:20;18.30;;;12.90;;
77733;SDS011;66902;41.720;44.796;2023-04-03T04:14:51;13.60;;;12.20;;
77733;SDS011;66902;41.720;44.796;2023-04-03T04:17:22;15.60;;;14.00;;
77733;SDS011;66902;41.720;44.796;2023-04-03T04:19:53;25.30;;;15.00;;
77733;SDS011;66902;41.720;44.796;2023-04-03T04:22:24;11.20;;;9.70;;
77733;SDS011;66902;41.720;44.796;2023-04-03T04:24:54;21.40;;;11.30;;
77733;SDS011;66902;41.720;44.796;2023-04-03T04:27:25;9.90;;;8.90;;
77733;SDS011;66902;41.720;44.796;2023-04-03T04:29:56;13.20;;;9.00;;
77733;SDS011;66902;41.720;44.796;2023-04-03T04:32:28;12.50;;;8.00;;
77733;SDS011;66902;41.720;44.796;2023-04-03T04:34:58;9.40;;;7.50;;
77733;SDS011;66902;41.720;44.796;2023-04-03T04:37:29;8.40;;;6.70;;
77733;SDS011;66902;41.720;44.796;2023-04-03T04:39:59;11.10;;;7.40;;
77733;SDS011;66902;41.720;44.796;2023-04-03T04:42:30;12.20;;;6.60;;
77733;SDS011;66902;41.720;44.796;2023-04-03T04:45:00;13.60;;;7.70;;
77733;SDS011;66902;41.720;44.796;2023-04-03T04:47:32;17.20;;;6.30;;
77733;SDS011;66902;41.720;44.796;2023-04-03T04:50:03;18.00;;;6.50;;
77733;SDS011;66902;41.720;44.796;2023-04-03T04:52:34;7.10;;;6.40;;
77733;SDS011;66902;41.720;44.796;2023-04-03T04:55:06;9.20;;;6.70;;
77733;SDS011;66902;41.720;44.796;2023-04-03T04:57:37;12.20;;;10.60;;
77733;SDS011;66902;41.720;44.796;2023-04-03T05:00:08;17.60;;;12.60;;
77733;SDS011;66902;41.720;44.796;2023-04-03T05:02:41;16.00;;;12.60;;
77733;SDS011;66902;41.720;44.796;2023-04-03T05:05:11;9.30;;;6.10;;
77733;SDS011;66902;41.720;44.796;2023-04-03T05:07:42;9.60;;;5.10;;
77733;SDS011;66902;41.720;44.796;2023-04-03T05:10:13;7.20;;;3.80;;
77733;SDS011;66902;41.720;44.796;2023-04-03T05:12:43;6.00;;;3.20;;
77733;SDS011;66902;41.720;44.796;2023-04-03T05:15:13;5.70;;;2.30;;
77733;SDS011;66902;41.720;44.796;2023-04-03T05:17:44;5.10;;;2.60;;
77733;SDS011;66902;41.720;44.796;2023-04-03T05:20:14;3.30;;;2.80;;
77733;SDS011;66902;41.720;44.796;2023-04-03T05:22:45;7.90;;;5.90;;
77733;SDS011;66902;41.720;44.796;2023-04-03T05:25:16;7.20;;;4.50;;
77733;SDS011;66902;41.720;44.796;2023-04-03T05:27:47;9.90;;;7.40;;
77733;SDS011;66902;41.720;44.796;2023-04-03T05:30:18;9.50;;;5.70;;
77733;SDS011;66902;41.720;44.796;2023-04-03T05:32:48;7.20;;;4.80;;
77733;SDS011;66902;41.720;44.796;2023-04-03T05:35:19;13.20;;;2.90;;
77733;SDS011;66902;41.720;44.796;2023-04-03T05:37:49;10.30;;;4.70;;
77733;SDS011;66902;41.720;44.796;2023-04-03T05:40:20;3.50;;;2.30;;
77733;SDS011;66902;41.720;44.796;2023-04-03T05:42:53;3.90;;;2.60;;
77733;SDS011;66902;41.720;44.796;2023-04-03T05:45:23;2.90;;;2.30;;
77733;SDS011;66902;41.720;44.796;2023-04-03T05:47:54;3.10;;;2.10;;
77733;SDS011;66902;41.720;44.796;2023-04-03T05:50:25;5.90;;;2.30;;
77733;SDS011;66902;41.720;44.796;2023-04-03T05:52:56;4.00;;;2.20;;
77733;SDS011;66902;41.720;44.796;2023-04-03T05:55:27;2.60;;;1.50;;
77733;SDS011;66902;41.720;44.796;2023-04-03T05:57:58;2.30;;;1.50;;
77733;SDS011;66902;41.720;44.796;2023-04-03T06:00:29;3.90;;;1.80;;
77733;SDS011;66902;41.720;44.796;2023-04-03T06:03:00;3.30;;;1.50;;
77733;SDS011;66902;41.720;44.796;2023-04-03T06:05:31;1.90;;;1.20;;
77733;SDS011;66902;41.720;44.796;2023-04-03T06:08:01;2.30;;;1.60;;
77733;SDS011;66902;41.720;44.796;2023-04-03T06:10:33;7.80;;;1.80;;
77733;SDS011;66902;41.720;44.796;2023-04-03T06:13:05;2.10;;;1.00;;
77733;SDS011;66902;41.720;44.796;2023-04-03T06:15:35;4.30;;;1.30;;
77733;SDS011;66902;41.720;44.796;2023-04-03T06:18:07;2.00;;;0.90;;
77733;SDS011;66902;41.720;44.796;2023-04-03T06:20:38;1.60;;;1.00;;
77733;SDS011;66902;41.720;44.796;2023-04-03T06:23:10;4.30;;;1.00;;
77733;SDS011;66902;41.720;44.796;2023-04-03T06:25:40;3.70;;;1.60;;
77733;SDS011;66902;41.720;44.796;2023-04-03T06:28:11;5.00;;;1.50;;
77733;SDS011;66902;41.720;44.796;2023-04-03T06:30:41;3.90;;;1.60;;
77733;SDS011;66902;41.720;44.796;2023-04-03T06:33:12;3.80;;;1.20;;
77733;SDS011;66902;41.720;44.796;2023-04-03T06:35:42;3.20;;;1.10;;
77733;SDS011;66902;41.720;44.796;2023-04-03T06:38:13;4.00;;;0.90;;
77733;SDS011;66902;41.720;44.796;2023-04-03T06:40:43;3.60;;;0.90;;
77733;SDS011;66902;41.720;44.796;2023-04-03T06:43:13;2.20;;;1.00;;
77733;SDS011;66902;41.720;44.796;2023-04-03T06:45:44;3.00;;;1.90;;
77733;SDS011;66902;41.720;44.796;2023-04-03T06:48:15;5.10;;;1.80;;
77733;SDS011;66902;41.720;44.796;2023-04-03T06:50:45;3.90;;;1.60;;
77733;SDS011;66902;41.720;44.796;2023-04-03T06:53:16;4.70;;;2.20;;
77733;SDS011;66902;41.720;44.796;2023-04-03T06:55:50;2.20;;;1.90;;
77733;SDS011;66902;41.720;44.796;2023-04-03T06:58:21;2.50;;;1.50;;
77733;SDS011;66902;41.720;44.796;2023-04-03T07:00:53;2.10;;;1.20;;
77733;SDS011;66902;41.720;44.796;2023-04-03T07:03:24;3.50;;;1.40;;
77733;SDS011;66902;41.720;44.796;2023-04-03T07:05:56;3.70;;;1.50;;
77733;SDS011;66902;41.720;44.796;2023-04-03T07:08:26;4.00;;;2.00;;
77733;SDS011;66902;41.720;44.796;2023-04-03T07:10:57;5.20;;;1.10;;
77733;SDS011;66902;41.720;44.796;2023-04-03T07:13:30;5.40;;;2.10;;
77733;SDS011;66902;41.720;44.796;2023-04-03T07:16:01;6.00;;;1.40;;
77733;SDS011;66902;41.720;44.796;2023-04-03T07:18:34;3.90;;;2.20;;
77733;SDS011;66902;41.720;44.796;2023-04-03T07:21:06;2.80;;;1.20;;
77733;SDS011;66902;41.720;44.796;2023-04-03T07:23:37;2.60;;;1.60;;
77733;SDS011;66902;41.720;44.796;2023-04-03T07:26:08;1.70;;;0.90;;
77733;SDS011;66902;41.720;44.796;2023-04-03T07:28:39;3.70;;;1.30;;
77733;SDS011;66902;41.720;44.796;2023-04-03T07:31:12;2.60;;;1.30;;
77733;SDS011;66902;41.720;44.796;2023-04-03T07:33:43;2.20;;;1.30;;
77733;SDS011;66902;41.720;44.796;2023-04-03T07:36:15;5.20;;;1.40;;
77733;SDS011;66902;41.720;44.796;2023-04-03T07:41:18;3.40;;;1.40;;
77733;SDS011;66902;41.720;44.796;2023-04-03T07:43:53;4.80;;;1.30;;
77733;SDS011;66902;41.720;44.796;2023-04-03T07:48:55;4.40;;;2.20;;
77733;SDS011;66902;41.720;44.796;2023-04-03T07:51:26;13.00;;;2.90;;
77733;SDS011;66902;41.720;44.796;2023-04-03T07:53:58;4.90;;;1.30;;
77733;SDS011;66902;41.720;44.796;2023-04-03T07:56:30;7.00;;;1.90;;
77733;SDS011;66902;41.720;44.796;2023-04-03T07:59:01;5.80;;;1.60;;
77733;SDS011;66902;41.720;44.796;2023-04-03T08:01:32;4.70;;;1.30;;
77733;SDS011;66902;41.720;44.796;2023-04-03T08:04:02;5.30;;;1.80;;
77733;SDS011;66902;41.720;44.796;2023-04-03T08:06:34;2.50;;;0.90;;
77733;SDS011;66902;41.720;44.796;2023-04-03T08:09:14;6.80;;;2.30;;
77733;SDS011;66902;41.720;44.796;2023-04-03T08:11:45;4.80;;;1.60;;
77733;SDS011;66902;41.720;44.796;2023-04-03T08:14:16;4.50;;;1.10;;
77733;SDS011;66902;41.720;44.796;2023-04-03T08:16:47;5.10;;;1.70;;
77733;SDS011;66902;41.720;44.796;2023-04-03T08:19:18;5.70;;;2.20;;
77733;SDS011;66902;41.720;44.796;2023-04-03T08:21:51;11.20;;;2.00;;
77733;SDS011;66902;41.720;44.796;2023-04-03T08:24:22;5.30;;;1.20;;
77733;SDS011;66902;41.720;44.796;2023-04-03T08:26:53;5.20;;;1.90;;
77733;SDS011;66902;41.720;44.796;2023-04-03T08:29:25;7.60;;;2.60;;
77733;SDS011;66902;41.720;44.796;2023-04-03T08:31:56;6.10;;;1.90;;
77733;SDS011;66902;41.720;44.796;2023-04-03T08:34:26;6.10;;;1.50;;
77733;SDS011;66902;41.720;44.796;2023-04-03T08:36:58;5.30;;;2.00;;
77733;SDS011;66902;41.720;44.796;2023-04-03T08:39:29;6.50;;;1.80;;
77733;SDS011;66902;41.720;44.796;2023-04-03T08:42:03;4.00;;;1.60;;
77733;SDS011;66902;41.720;44.796;2023-04-03T08:44:42;7.60;;;1.10;;
77733;SDS011;66902;41.720;44.796;2023-04-03T08:47:20;13.20;;;1.90;;
77733;SDS011;66902;41.720;44.796;2023-04-03T08:49:55;9.80;;;1.90;;
77733;SDS011;66902;41.720;44.796;2023-04-03T08:52:34;6.60;;;2.00;;
77733;SDS011;66902;41.720;44.796;2023-04-03T08:55:12;4.80;;;1.70;;
77733;SDS011;66902;41.720;44.796;2023-04-03T08:57:49;5.30;;;1.30;;
77733;SDS011;66902;41.720;44.796;2023-04-03T09:00:27;6.00;;;1.60;;
77733;SDS011;66902;41.720;44.796;2023-04-03T09:03:12;3.80;;;1.70;;
77733;SDS011;66902;41.720;44.796;2023-04-03T09:05:46;8.00;;;2.20;;
77733;SDS011;66902;41.720;44.796;2023-04-03T09:08:24;5.50;;;2.10;;
77733;SDS011;66902;41.720;44.796;2023-04-03T09:11:09;7.30;;;2.30;;
77733;SDS011;66902;41.720;44.796;2023-04-03T09:13:47;3.90;;;1.70;;
77733;SDS011;66902;41.720;44.796;2023-04-03T09:16:27;7.40;;;1.80;;
77733;SDS011;66902;41.720;44.796;2023-04-03T09:19:05;4.90;;;1.80;;
77733;SDS011;66902;41.720;44.796;2023-04-03T09:21:42;13.20;;;2.40;;
77733;SDS011;66902;41.720;44.796;2023-04-03T09:24:15;3.90;;;2.00;;
77733;SDS011;66902;41.720;44.796;2023-04-03T09:26:48;2.20;;;2.00;;
77733;SDS011;66902;41.720;44.796;2023-04-03T09:29:23;3.60;;;2.20;;
77733;SDS011;66902;41.720;44.796;2023-04-03T09:31:57;5.00;;;1.50;;
77733;SDS011;66902;41.720;44.796;2023-04-03T09:34:31;5.80;;;1.90;;
77733;SDS011;66902;41.720;44.796;2023-04-03T09:37:04;12.70;;;2.50;;
77733;SDS011;66902;41.720;44.796;2023-04-03T09:39:49;3.80;;;1.80;;
77733;SDS011;66902;41.720;44.796;2023-04-03T09:42:22;6.30;;;1.60;;
77733;SDS011;66902;41.720;44.796;2023-04-03T09:44:55;11.90;;;2.40;;
77733;SDS011;66902;41.720;44.796;2023-04-03T09:47:32;9.10;;;2.00;;
77733;SDS011;66902;41.720;44.796;2023-04-03T09:50:19;5.50;;;1.50;;
77733;SDS011;66902;41.720;44.796;2023-04-03T09:52:51;3.90;;;1.60;;
77733;SDS011;66902;41.720;44.796;2023-04-03T09:55:26;4.80;;;1.80;;
77733;SDS011;66902;41.720;44.796;2023-04-03T09:57:58;4.80;;;2.30;;
77733;SDS011;66902;41.720;44.796;2023-04-03T10:00:31;3.40;;;1.80;;
77733;SDS011;66902;41.720;44.796;2023-04-03T10:03:21;13.70;;;2.60;;
77733;SDS011;66902;41.720;44.796;2023-04-03T10:05:55;4.60;;;2.40;;
77733;SDS011;66902;41.720;44.796;2023-04-03T10:08:29;10.40;;;2.40;;
77733;SDS011;66902;41.720;44.796;2023-04-03T10:11:15;5.00;;;1.80;;
77733;SDS011;66902;41.720;44.796;2023-04-03T10:13:51;5.10;;;2.00;;
77733;SDS011;66902;41.720;44.796;2023-04-03T10:16:26;10.10;;;1.70;;
77733;SDS011;66902;41.720;44.796;2023-04-03T10:21:55;5.60;;;2.40;;
77733;SDS011;66902;41.720;44.796;2023-04-03T10:24:30;3.20;;;1.70;;
77733;SDS011;66902;41.720;44.796;2023-04-03T10:27:05;2.80;;;1.70;;
77733;SDS011;66902;41.720;44.796;2023-04-03T10:29:47;3.60;;;1.60;;
77733;SDS011;66902;41.720;44.796;2023-04-03T10:32:41;2.80;;;1.90;;
77733;SDS011;66902;41.720;44.796;2023-04-03T10:35:24;10.40;;;2.30;;
77733;SDS011;66902;41.720;44.796;2023-04-03T10:38:03;4.90;;;2.00;;
77733;SDS011;66902;41.720;44.796;2023-04-03T10:40:39;6.30;;;2.40;;
77733;SDS011;66902;41.720;44.796;2023-04-03T10:43:17;9.90;;;3.20;;
77733;SDS011;66902;41.720;44.796;2023-04-03T10:45:55;4.30;;;1.90;;
77733;SDS011;66902;41.720;44.796;2023-04-03T10:48:38;4.50;;;1.50;;
77733;SDS011;66902;41.720;44.796;2023-04-03T10:51:18;6.90;;;1.90;;
77733;SDS011;66902;41.720;44.796;2023-04-03T10:54:00;5.50;;;2.00;;
77733;SDS011;66902;41.720;44.796;2023-04-03T10:56:35;9.90;;;1.70;;
77733;SDS011;66902;41.720;44.796;2023-04-03T10:59:15;4.20;;;2.40;;
77733;SDS011;66902;41.720;44.796;2023-04-03T11:01:49;7.10;;;2.10;;
77733;SDS011;66902;41.720;44.796;2023-04-03T11:04:21;4.20;;;2.40;;
77733;SDS011;66902;41.720;44.796;2023-04-03T11:06:57;5.70;;;2.30;;
77733;SDS011;66902;41.720;44.796;2023-04-03T11:09:31;4.20;;;1.70;;
77733;SDS011;66902;41.720;44.796;2023-04-03T11:12:06;5.80;;;2.00;;
77733;SDS011;66902;41.720;44.796;2023-04-03T11:14:41;2.70;;;1.40;;
77733;SDS011;66902;41.720;44.796;2023-04-03T11:17:18;5.60;;;1.80;;
77733;SDS011;66902;41.720;44.796;2023-04-03T11:19:59;4.80;;;1.50;;
77733;SDS011;66902;41.720;44.796;2023-04-03T11:22:35;6.80;;;2.10;;
77733;SDS011;66902;41.720;44.796;2023-04-03T11:25:13;9.40;;;2.30;;
77733;SDS011;66902;41.720;44.796;2023-04-03T11:27:51;9.60;;;1.90;;
77733;SDS011;66902;41.720;44.796;2023-04-03T11:30:25;5.20;;;1.30;;
77733;SDS011;66902;41.720;44.796;2023-04-03T11:36:05;14.50;;;1.80;;
77733;SDS011;66902;41.720;44.796;2023-04-03T11:38:57;8.50;;;2.10;;
77733;SDS011;66902;41.720;44.796;2023-04-03T11:41:30;3.80;;;1.60;;
77733;SDS011;66902;41.720;44.796;2023-04-03T11:44:04;9.60;;;1.90;;
77733;SDS011;66902;41.720;44.796;2023-04-03T11:46:53;4.00;;;2.10;;
77733;SDS011;66902;41.720;44.796;2023-04-03T11:58:26;2.70;;;1.40;;
77733;SDS011;66902;41.720;44.796;2023-04-03T12:01:06;6.50;;;4.70;;
77733;SDS011;66902;41.720;44.796;2023-04-03T12:12:33;3.80;;;1.60;;
77733;SDS011;66902;41.720;44.796;2023-04-03T12:24:37;7.10;;;2.00;;
77733;SDS011;66902;41.720;44.796;2023-04-03T12:30:05;5.00;;;1.50;;
77733;SDS011;66902;41.720;44.796;2023-04-03T12:35:56;4.80;;;1.20;;
77733;SDS011;66902;41.720;44.796;2023-04-03T12:38:54;13.10;;;2.50;;
77733;SDS011;66902;41.720;44.796;2023-04-03T12:41:42;3.10;;;2.10;;
77733;SDS011;66902;41.720;44.796;2023-04-03T12:44:30;4.30;;;1.80;;
77733;SDS011;66902;41.720;44.796;2023-04-03T12:47:13;1.90;;;1.10;;
77733;SDS011;66902;41.720;44.796;2023-04-03T12:49:51;3.00;;;1.30;;
77733;SDS011;66902;41.720;44.796;2023-04-03T12:52:26;3.70;;;1.20;;
77733;SDS011;66902;41.720;44.796;2023-04-03T12:55:02;2.90;;;0.80;;
77733;SDS011;66902;41.720;44.796;2023-04-03T12:57:34;6.50;;;2.60;;
77733;SDS011;66902;41.720;44.796;2023-04-03T13:02:57;3.90;;;1.60;;
77733;SDS011;66902;41.720;44.796;2023-04-03T13:05:29;5.90;;;2.10;;
77733;SDS011;66902;41.720;44.796;2023-04-03T13:08:05;2.30;;;1.90;;
77733;SDS011;66902;41.720;44.796;2023-04-03T13:10:49;6.10;;;1.90;;
77733;SDS011;66902;41.720;44.796;2023-04-03T13:13:22;13.10;;;1.70;;
77733;SDS011;66902;41.720;44.796;2023-04-03T13:15:54;4.00;;;1.80;;
77733;SDS011;66902;41.720;44.796;2023-04-03T13:18:27;2.30;;;1.70;;
77733;SDS011;66902;41.720;44.796;2023-04-03T13:21:02;4.20;;;1.90;;
77733;SDS011;66902;41.720;44.796;2023-04-03T13:23:36;4.20;;;1.90;;
77733;SDS011;66902;41.720;44.796;2023-04-03T13:26:08;4.80;;;2.50;;
77733;SDS011;66902;41.720;44.796;2023-04-03T13:28:39;5.00;;;2.00;;
77733;SDS011;66902;41.720;44.796;2023-04-03T13:31:17;12.50;;;2.30;;
77733;SDS011;66902;41.720;44.796;2023-04-03T13:33:57;7.50;;;2.00;;
77733;SDS011;66902;41.720;44.796;2023-04-03T13:36:34;3.90;;;1.60;;
77733;SDS011;66902;41.720;44.796;2023-04-03T13:39:21;4.10;;;1.80;;
77733;SDS011;66902;41.720;44.796;2023-04-03T13:41:53;4.50;;;1.90;;
77733;SDS011;66902;41.720;44.796;2023-04-03T13:44:27;6.50;;;2.00;;
77733;SDS011;66902;41.720;44.796;2023-04-03T13:47:00;6.20;;;1.80;;
77733;SDS011;66902;41.720;44.796;2023-04-03T13:50:00;8.90;;;3.40;;
77733;SDS011;66902;41.720;44.796;2023-04-03T13:52:38;11.80;;;3.80;;
77733;SDS011;66902;41.720;44.796;2023-04-03T13:55:16;3.30;;;2.40;;
77733;SDS011;66902;41.720;44.796;2023-04-03T13:58:19;4.60;;;2.90;;
77733;SDS011;66902;41.720;44.796;2023-04-03T14:00:52;6.10;;;2.80;;
77733;SDS011;66902;41.720;44.796;2023-04-03T14:03:24;7.80;;;3.30;;
77733;SDS011;66902;41.720;44.796;2023-04-03T14:05:57;6.10;;;3.00;;
77733;SDS011;66902;41.720;44.796;2023-04-03T14:08:29;9.10;;;2.80;;
77733;SDS011;66902;41.720;44.796;2023-04-03T14:11:13;14.90;;;2.60;;
77733;SDS011;66902;41.720;44.796;2023-04-03T14:13:46;6.20;;;2.50;;
77733;SDS011;66902;41.720;44.796;2023-04-03T14:16:20;11.70;;;2.80;;
77733;SDS011;66902;41.720;44.796;2023-04-03T14:18:52;5.40;;;2.40;;
77733;SDS011;66902;41.720;44.796;2023-04-03T14:21:23;5.50;;;2.30;;
77733;SDS011;66902;41.720;44.796;2023-04-03T14:23:54;6.00;;;2.20;;
77733;SDS011;66902;41.720;44.796;2023-04-03T14:26:25;2.20;;;2.00;;
77733;SDS011;66902;41.720;44.796;2023-04-03T14:28:58;5.10;;;2.80;;
77733;SDS011;66902;41.720;44.796;2023-04-03T14:31:29;6.40;;;2.90;;
77733;SDS011;66902;41.720;44.796;2023-04-03T14:34:02;5.60;;;2.10;;
77733;SDS011;66902;41.720;44.796;2023-04-03T14:36:33;3.20;;;2.50;;
77733;SDS011;66902;41.720;44.796;2023-04-03T14:39:10;3.00;;;1.60;;
77733;SDS011;66902;41.720;44.796;2023-04-03T14:41:44;3.80;;;2.20;;
77733;SDS011;66902;41.720;44.796;2023-04-03T14:44:16;3.40;;;2.10;;
77733;SDS011;66902;41.720;44.796;2023-04-03T14:46:46;6.70;;;2.20;;
77733;SDS011;66902;41.720;44.796;2023-04-03T14:49:23;8.10;;;2.20;;
77733;SDS011;66902;41.720;44.796;2023-04-03T14:51:56;4.50;;;2.20;;
77733;SDS011;66902;41.720;44.796;2023-04-03T14:54:27;4.30;;;2.30;;
77733;SDS011;66902;41.720;44.796;2023-04-03T14:56:58;4.40;;;2.20;;
77733;SDS011;66902;41.720;44.796;2023-04-03T14:59:29;5.10;;;1.50;;
77733;SDS011;66902;41.720;44.796;2023-04-03T15:02:01;2.00;;;1.50;;
77733;SDS011;66902;41.720;44.796;2023-04-03T15:04:35;6.00;;;2.00;;
77733;SDS011;66902;41.720;44.796;2023-04-03T15:07:07;2.70;;;2.10;;
77733;SDS011;66902;41.720;44.796;2023-04-03T15:09:38;3.50;;;1.90;;
77733;SDS011;66902;41.720;44.796;2023-04-03T15:12:09;2.50;;;1.70;;
77733;SDS011;66902;41.720;44.796;2023-04-03T15:14:46;4.90;;;1.30;;
77733;SDS011;66902;41.720;44.796;2023-04-03T15:17:27;2.60;;;1.50;;
77733;SDS011;66902;41.720;44.796;2023-04-03T15:19:58;3.50;;;1.70;;
77733;SDS011;66902;41.720;44.796;2023-04-03T15:22:29;2.20;;;1.70;;
77733;SDS011;66902;41.720;44.796;2023-04-03T15:25:00;3.70;;;1.50;;
77733;SDS011;66902;41.720;44.796;2023-04-03T15:27:32;3.80;;;1.90;;
77733;SDS011;66902;41.720;44.796;2023-04-03T15:30:03;2.60;;;1.40;;
77733;SDS011;66902;41.720;44.796;2023-04-03T15:32:35;2.20;;;1.60;;
77733;SDS011;66902;41.720;44.796;2023-04-03T15:35:06;2.80;;;2.10;;
77733;SDS011;66902;41.720;44.796;2023-04-03T15:37:38;6.50;;;2.30;;
77733;SDS011;66902;41.720;44.796;2023-04-03T15:40:11;4.00;;;2.70;;
77733;SDS011;66902;41.720;44.796;2023-04-03T15:42:43;2.50;;;2.30;;
77733;SDS011;66902;41.720;44.796;2023-04-03T15:45:15;4.20;;;2.60;;
77733;SDS011;66902;41.720;44.796;2023-04-03T15:47:47;2.30;;;1.40;;
77733;SDS011;66902;41.720;44.796;2023-04-03T15:50:18;3.90;;;2.20;;
77733;SDS011;66902;41.720;44.796;2023-04-03T15:52:51;5.10;;;3.20;;
77733;SDS011;66902;41.720;44.796;2023-04-03T15:55:23;3.20;;;2.40;;